createdAt,value
2023-05-12T00:01:08.150Z,83.52
2023-05-12T00:03:34.984Z,83.77
2023-05-12T00:06:05.111Z,83.51
2023-05-12T00:08:31.848Z,83.55
2023-05-12T00:10:58.517Z,83.39
2023-05-12T00:13:25.326Z,83.63
2023-05-12T00:15:52.189Z,83.73
2023-05-12T00:18:18.982Z,84.01
2023-05-12T00:20:45.684Z,83.66
2023-05-12T00:23:12.458Z,84.15
2023-05-12T00:25:39.172Z,83.86
2023-05-12T00:28:05.973Z,83.77
2023-05-12T00:30:32.598Z,83.20
2023-05-12T00:32:59.332Z,83.74
2023-05-12T00:35:25.967Z,83.77
2023-05-12T00:37:52.802Z,84.12
2023-05-12T00:40:19.664Z,84.29
2023-05-12T00:42:46.555Z,83.72
2023-05-12T00:45:13.241Z,84.11
2023-05-12T00:47:40.090Z,84.31
2023-05-12T00:50:08.476Z,84.21
2023-05-12T00:52:35.874Z,84.47
2023-05-12T00:55:03.499Z,84.13
2023-05-12T00:57:30.297Z,84.22
2023-05-12T00:59:57.617Z,84.25
2023-05-12T01:02:24.764Z,84.02
2023-05-12T01:04:52.096Z,84.28
2023-05-12T01:07:22.177Z,84.23
2023-05-12T01:09:55.312Z,84.85
2023-05-12T01:12:26.217Z,84.42
2023-05-12T01:14:53.488Z,84.78
2023-05-12T01:17:24.369Z,84.41
2023-05-12T01:19:57.034Z,83.89
2023-05-12T01:22:24.129Z,84.64
2023-05-12T01:25:03.019Z,84.84
2023-05-12T01:27:31.764Z,84.35
2023-05-12T01:30:02.315Z,84.34
2023-05-12T01:32:33.028Z,84.26
2023-05-12T01:35:00.184Z,84.16
2023-05-12T01:37:29.061Z,84.39
2023-05-12T01:39:56.608Z,84.58
2023-05-12T01:42:23.385Z,84.84
2023-05-12T01:44:51.962Z,84.74
2023-05-12T01:47:20.960Z,84.82
2023-05-12T01:49:57.516Z,84.89
2023-05-12T01:52:25.319Z,84.88
2023-05-12T01:54:52.397Z,84.59
2023-05-12T01:57:19.325Z,84.71
2023-05-12T01:59:46.793Z,84.99
2023-05-12T02:02:13.582Z,84.66
2023-05-12T02:04:40.352Z,84.86
2023-05-12T02:07:07.015Z,84.64
2023-05-12T02:09:33.751Z,84.39
2023-05-12T02:12:02.600Z,84.44
2023-05-12T02:14:29.382Z,84.37
2023-05-12T02:16:56.961Z,84.70
2023-05-12T02:19:25.297Z,84.62
2023-05-12T02:21:52.532Z,84.30
2023-05-12T02:24:19.222Z,84.62
2023-05-12T02:26:46.008Z,84.65
2023-05-12T02:29:13.491Z,84.41
2023-05-12T02:31:40.356Z,84.58
2023-05-12T02:34:16.426Z,84.70
2023-05-12T02:36:43.286Z,84.70
2023-05-12T02:39:11.587Z,84.88
2023-05-12T02:41:38.762Z,84.21
2023-05-12T02:44:05.405Z,84.25
2023-05-12T02:46:32.414Z,84.35
2023-05-12T02:48:59.137Z,84.77
2023-05-12T02:51:25.899Z,84.40
2023-05-12T02:53:52.533Z,84.61
2023-05-12T02:56:19.301Z,84.45
2023-05-12T02:58:45.930Z,84.50
2023-05-12T03:01:12.724Z,84.55
2023-05-12T03:03:41.399Z,84.74
2023-05-12T03:06:08.391Z,85.15
2023-05-12T03:08:35.074Z,85.11
2023-05-12T03:11:02.577Z,84.62
2023-05-12T03:13:29.577Z,84.74
2023-05-12T03:15:57.208Z,84.90
2023-05-12T03:18:23.876Z,84.58
2023-05-12T03:20:50.838Z,84.87
2023-05-12T03:23:17.420Z,84.34
2023-05-12T03:25:44.209Z,84.84
2023-05-12T03:28:11.472Z,85.22
2023-05-12T03:30:38.362Z,84.92
2023-05-12T03:33:05.136Z,85.10
2023-05-12T03:35:32.404Z,84.70
2023-05-12T03:38:01.818Z,84.79
2023-05-12T03:40:29.092Z,84.71
2023-05-12T03:42:55.705Z,84.35
2023-05-12T03:45:22.457Z,84.56
2023-05-12T03:47:49.244Z,85.07
2023-05-12T03:50:16.058Z,84.85
2023-05-12T03:52:42.693Z,85.17
2023-05-12T03:55:10.510Z,85.10
2023-05-12T03:57:38.194Z,84.85
2023-05-12T04:00:07.354Z,84.77
2023-05-12T04:02:39.722Z,85.23
2023-05-12T04:05:08.696Z,84.94
2023-05-12T04:07:35.799Z,85.06
2023-05-12T04:10:03.073Z,85.13
2023-05-12T04:12:29.899Z,85.14
2023-05-12T04:14:57.292Z,85.25
2023-05-12T04:17:24.607Z,85.73
2023-05-12T04:19:53.479Z,85.38
2023-05-12T04:22:20.214Z,85.17
2023-05-12T04:24:46.897Z,85.42
2023-05-12T04:27:13.639Z,85.54
2023-05-12T04:29:40.523Z,85.14
2023-05-12T04:32:07.927Z,85.25
2023-05-12T04:34:35.322Z,85.67
2023-05-12T04:37:02.135Z,85.37
2023-05-12T04:39:29.755Z,85.17
2023-05-12T04:41:57.874Z,85.61
2023-05-12T04:44:24.885Z,85.04
2023-05-12T04:46:54.111Z,85.31
2023-05-12T04:49:20.856Z,85.62
2023-05-12T04:51:48.106Z,85.89
2023-05-12T04:54:14.805Z,86.11
2023-05-12T04:56:42.587Z,85.66
2023-05-12T04:59:09.606Z,85.78
2023-05-12T05:01:36.373Z,85.25
2023-05-12T05:04:03.333Z,85.51
2023-05-12T05:06:30.830Z,85.51
2023-05-12T05:08:59.043Z,85.16
2023-05-12T05:11:25.973Z,85.10
2023-05-12T05:13:52.798Z,84.70
2023-05-12T05:16:20.419Z,84.87
2023-05-12T05:18:48.047Z,84.61
2023-05-12T05:21:15.070Z,84.56
2023-05-12T05:23:42.438Z,84.17
2023-05-12T05:26:09.481Z,84.15
2023-05-12T05:28:36.676Z,84.06
2023-05-12T05:31:03.416Z,83.96
2023-05-12T05:33:30.283Z,83.46
2023-05-12T05:35:57.044Z,83.58
2023-05-12T05:38:24.035Z,82.88
2023-05-12T05:40:54.212Z,82.83
2023-05-12T05:43:23.051Z,82.83
2023-05-12T05:45:50.423Z,82.27
2023-05-12T05:48:18.581Z,82.41
2023-05-12T05:50:46.740Z,82.42
2023-05-12T05:53:13.432Z,82.53
2023-05-12T05:55:40.850Z,82.08
2023-05-12T05:58:07.773Z,81.93
2023-05-12T06:00:34.560Z,82.53
2023-05-12T06:03:01.893Z,82.90
2023-05-12T06:05:29.030Z,82.94
2023-05-12T06:07:55.945Z,83.46
2023-05-12T06:10:22.792Z,83.88
2023-05-12T06:12:50.567Z,84.04
2023-05-12T06:15:17.787Z,84.16
2023-05-12T06:17:44.911Z,83.54
2023-05-12T06:20:13.418Z,83.52
2023-05-12T06:22:42.339Z,83.25
2023-05-12T06:25:10.008Z,82.89
2023-05-12T06:27:38.226Z,82.56
2023-05-12T06:30:06.446Z,82.20
2023-05-12T06:32:33.254Z,82.21
2023-05-12T06:34:59.949Z,81.79
2023-05-12T06:37:27.509Z,81.13
2023-05-12T06:39:54.303Z,81.14
2023-05-12T06:42:23.455Z,80.72
2023-05-12T06:44:51.895Z,80.16
2023-05-12T06:47:20.608Z,80.13
2023-05-12T06:49:50.068Z,79.61
2023-05-12T06:52:17.147Z,79.06
2023-05-12T06:54:43.815Z,78.38
2023-05-12T06:57:10.871Z,78.24
2023-05-12T06:59:37.523Z,77.48
2023-05-12T07:02:04.270Z,76.16
2023-05-12T07:04:31.049Z,75.73
2023-05-12T07:06:57.843Z,75.80
2023-05-12T07:09:24.573Z,74.29
2023-05-12T07:11:51.249Z,73.24
2023-05-12T07:14:17.957Z,71.97
2023-05-12T07:16:44.614Z,71.68
2023-05-12T07:19:11.376Z,71.17
2023-05-12T07:21:38.248Z,70.15
2023-05-12T07:24:06.276Z,69.64
2023-05-12T07:26:33.506Z,69.19
2023-05-12T07:29:01.020Z,68.70
2023-05-12T07:31:28.663Z,68.99
2023-05-12T07:33:55.516Z,68.63
2023-05-12T07:36:22.315Z,67.18
2023-05-12T07:38:48.972Z,67.09
2023-05-12T07:41:15.722Z,67.04
2023-05-12T07:43:42.299Z,65.72
2023-05-12T07:46:09.071Z,65.31
2023-05-12T07:48:39.950Z,64.36
2023-05-12T07:51:07.417Z,63.85
2023-05-12T07:53:34.045Z,63.22
2023-05-12T07:56:00.751Z,63.23
2023-05-12T07:58:27.328Z,61.99
2023-05-12T08:00:54.598Z,62.04
2023-05-12T08:03:21.387Z,61.36
2023-05-12T08:05:48.113Z,62.17
2023-05-12T08:08:16.774Z,61.89
2023-05-12T08:10:44.300Z,62.21
2023-05-12T08:13:10.967Z,62.08
2023-05-12T08:15:37.728Z,61.62
2023-05-12T08:18:04.513Z,61.93
2023-05-12T08:20:32.198Z,61.78
2023-05-12T08:22:59.424Z,61.16
2023-05-12T08:25:27.856Z,60.43
2023-05-12T08:27:54.743Z,61.37
2023-05-12T08:30:21.412Z,61.04
2023-05-12T08:32:48.265Z,60.25
2023-05-12T08:35:15.010Z,59.55
2023-05-12T08:37:41.748Z,59.29
2023-05-12T08:40:15.718Z,57.13
2023-05-12T08:43:01.842Z,57.90
2023-05-12T08:45:29.506Z,56.49
2023-05-12T08:47:56.997Z,56.21
2023-05-12T08:50:24.459Z,55.36
2023-05-12T08:52:51.578Z,57.31
2023-05-12T08:55:19.484Z,56.58
2023-05-12T08:57:48.607Z,57.09
2023-05-12T09:00:16.395Z,57.48
2023-05-12T09:02:53.076Z,58.09
2023-05-12T09:05:22.067Z,56.91
2023-05-12T09:07:49.963Z,55.78
2023-05-12T09:10:32.721Z,55.66
2023-05-12T09:13:14.780Z,57.36
2023-05-12T09:15:43.369Z,57.39
2023-05-12T09:18:10.127Z,56.67
2023-05-12T09:20:36.965Z,57.42
2023-05-12T09:23:20.729Z,57.38
2023-05-12T09:25:48.425Z,57.67
2023-05-12T09:28:15.702Z,58.20
2023-05-12T09:30:42.886Z,58.64
2023-05-12T09:33:11.522Z,57.95
2023-05-12T09:35:40.271Z,56.81
2023-05-12T09:38:08.545Z,54.42
2023-05-12T09:40:35.429Z,56.63
2023-05-12T09:43:03.441Z,57.03
2023-05-12T09:45:34.108Z,57.53
2023-05-12T09:48:09.503Z,59.42
2023-05-12T09:50:47.304Z,59.47
2023-05-12T09:53:17.285Z,58.83
2023-05-12T09:55:44.837Z,58.58
2023-05-12T09:58:11.825Z,59.88
2023-05-12T10:00:59.106Z,59.90
2023-05-12T10:03:30.333Z,59.32
2023-05-12T10:05:58.809Z,59.67
2023-05-12T10:08:32.085Z,58.74
2023-05-12T10:10:59.897Z,59.15
2023-05-12T10:13:26.734Z,58.64
2023-05-12T10:15:57.120Z,59.44
2023-05-12T10:18:24.268Z,60.45
2023-05-12T10:20:52.563Z,59.07
2023-05-12T10:23:20.211Z,59.13
2023-05-12T10:25:47.861Z,59.69
2023-05-12T10:28:14.578Z,60.08
2023-05-12T10:30:41.752Z,60.59
2023-05-12T10:33:11.398Z,61.57
2023-05-12T10:35:39.415Z,62.25
2023-05-12T10:38:07.849Z,62.71
2023-05-12T10:40:34.602Z,63.19
2023-05-12T10:43:01.531Z,64.18
2023-05-12T10:45:28.628Z,64.48
2023-05-12T10:48:05.969Z,64.12
2023-05-12T10:50:33.905Z,63.92
2023-05-12T10:53:00.633Z,64.11
2023-05-12T10:55:42.795Z,63.84
2023-05-12T10:58:11.713Z,63.16
2023-05-12T11:00:50.532Z,63.27
2023-05-12T11:03:25.332Z,61.29
2023-05-12T11:06:03.060Z,61.96
2023-05-12T11:08:32.426Z,61.77
2023-05-12T11:10:59.499Z,62.13
2023-05-12T11:13:26.274Z,61.40
2023-05-12T11:15:53.121Z,63.58
2023-05-12T11:18:21.698Z,64.81
2023-05-12T11:20:48.888Z,63.83
2023-05-12T11:23:27.236Z,62.56
2023-05-12T11:25:54.044Z,61.79
2023-05-12T11:28:20.687Z,60.50
2023-05-12T11:30:55.005Z,60.26
2023-05-12T11:33:25.507Z,58.35
2023-05-12T11:35:52.240Z,58.05
2023-05-12T11:38:19.624Z,56.80
2023-05-12T11:40:47.101Z,55.72
2023-05-12T11:43:15.233Z,55.85
2023-05-12T11:45:42.298Z,54.96
2023-05-12T11:48:13.814Z,56.40
2023-05-12T11:50:42.317Z,56.27
2023-05-12T11:53:14.786Z,56.35
2023-05-12T11:55:55.817Z,55.47
2023-05-12T11:58:26.597Z,57.56
2023-05-12T12:00:54.240Z,58.70
2023-05-12T12:03:21.204Z,59.05
2023-05-12T12:05:59.698Z,59.62
2023-05-12T12:08:26.428Z,59.00
2023-05-12T12:10:53.159Z,59.78
2023-05-12T12:13:24.506Z,57.90
2023-05-12T12:15:51.560Z,59.20
2023-05-12T12:18:21.592Z,56.84
2023-05-12T12:20:48.689Z,57.25
2023-05-12T12:23:15.467Z,57.34
2023-05-12T12:25:42.258Z,55.58
2023-05-12T12:28:09.031Z,53.88
2023-05-12T12:30:35.728Z,54.56
2023-05-12T12:33:02.478Z,55.69
2023-05-12T12:35:29.189Z,55.37
2023-05-12T12:37:55.789Z,55.04
2023-05-12T12:40:22.501Z,55.08
2023-05-12T12:42:49.197Z,53.53
2023-05-12T12:45:16.952Z,52.90
2023-05-12T12:47:44.666Z,53.15
2023-05-12T12:50:11.650Z,54.14
2023-05-12T12:52:38.685Z,53.46
2023-05-12T12:55:06.747Z,53.16
2023-05-12T12:57:33.385Z,53.23
2023-05-12T13:00:00.156Z,52.62
2023-05-12T13:02:27.020Z,52.98
2023-05-12T13:04:53.915Z,54.48
2023-05-12T13:07:20.840Z,54.32
2023-05-12T13:09:47.580Z,54.60
2023-05-12T13:12:14.704Z,53.81
2023-05-12T13:14:41.453Z,52.82
2023-05-12T13:17:08.206Z,52.40
2023-05-12T13:19:37.786Z,52.89
2023-05-12T13:22:05.202Z,51.67
2023-05-12T13:24:31.904Z,50.79
2023-05-12T13:26:58.896Z,52.74
2023-05-12T13:29:25.649Z,52.34
2023-05-12T13:31:52.453Z,51.02
2023-05-12T13:34:19.163Z,52.32
2023-05-12T13:36:45.857Z,50.51
2023-05-12T13:39:12.686Z,51.96
2023-05-12T13:41:39.379Z,51.24
2023-05-12T13:44:06.223Z,51.28
2023-05-12T13:46:32.937Z,53.78
2023-05-12T13:48:59.657Z,56.44
2023-05-12T13:51:26.753Z,56.36
2023-05-12T13:53:53.529Z,58.76
2023-05-12T13:56:20.365Z,59.89
2023-05-12T13:58:47.791Z,60.61
2023-05-12T14:01:14.815Z,60.22
2023-05-12T14:03:42.149Z,59.73
2023-05-12T14:06:09.345Z,62.00
2023-05-12T14:08:36.346Z,61.29
2023-05-12T14:11:03.310Z,61.85
2023-05-12T14:13:30.229Z,62.11
2023-05-12T14:15:57.301Z,61.89
2023-05-12T14:18:25.104Z,62.41
2023-05-12T14:20:52.176Z,61.95
2023-05-12T14:23:18.867Z,61.55
2023-05-12T14:25:45.794Z,61.11
2023-05-12T14:28:12.455Z,61.85
2023-05-12T14:30:39.558Z,60.18
2023-05-12T14:33:06.572Z,58.74
2023-05-12T14:35:33.378Z,57.69
2023-05-12T14:38:00.021Z,55.65
2023-05-12T14:40:27.494Z,54.73
2023-05-12T14:42:55.091Z,53.21
2023-05-12T14:45:22.255Z,51.37
2023-05-12T14:47:49.235Z,52.19
2023-05-12T14:50:16.098Z,53.97
2023-05-12T14:52:42.732Z,52.30
2023-05-12T14:55:13.979Z,51.41
2023-05-12T14:57:41.488Z,51.91
2023-05-12T15:00:10.785Z,52.53
2023-05-12T15:02:37.980Z,52.02
2023-05-12T15:05:07.116Z,54.27
2023-05-12T15:07:34.066Z,54.14
2023-05-12T15:10:01.157Z,55.63
2023-05-12T15:12:27.944Z,56.50
2023-05-12T15:14:56.348Z,56.79
2023-05-12T15:17:23.477Z,57.32
2023-05-12T15:19:50.367Z,56.60
2023-05-12T15:22:17.024Z,56.01
2023-05-12T15:24:43.869Z,56.15
2023-05-12T15:27:10.631Z,60.16
2023-05-12T15:29:41.355Z,57.75
2023-05-12T15:32:08.223Z,58.12
2023-05-12T15:34:35.119Z,58.68
2023-05-12T15:37:01.966Z,58.18
2023-05-12T15:39:28.693Z,58.77
2023-05-12T15:41:55.386Z,61.02
2023-05-12T15:44:21.985Z,61.71
2023-05-12T15:46:48.727Z,65.82
2023-05-12T15:49:15.396Z,68.83
2023-05-12T15:51:42.142Z,69.72
2023-05-12T15:54:09.730Z,72.11
2023-05-12T15:56:37.349Z,73.37
2023-05-12T15:59:05.207Z,74.32
2023-05-12T16:01:32.100Z,75.63
2023-05-12T16:04:00.674Z,76.43
2023-05-12T16:06:27.560Z,76.50
2023-05-12T16:08:54.299Z,75.61
2023-05-12T16:11:20.930Z,75.94
2023-05-12T16:13:47.646Z,75.95
2023-05-12T16:16:14.395Z,74.91
2023-05-12T16:18:41.371Z,73.48
2023-05-12T16:21:09.557Z,71.42
2023-05-12T16:23:36.346Z,70.67
2023-05-12T16:26:03.278Z,69.95
2023-05-12T16:28:30.040Z,68.76
2023-05-12T16:30:56.778Z,68.28
2023-05-12T16:33:23.493Z,66.12
2023-05-12T16:35:50.757Z,66.52
2023-05-12T16:38:17.503Z,67.71
2023-05-12T16:40:44.377Z,67.97
2023-05-12T16:43:11.006Z,68.72
2023-05-12T16:45:37.811Z,69.78
2023-05-12T16:48:04.853Z,70.79
2023-05-12T16:50:32.205Z,73.98
2023-05-12T16:52:58.860Z,74.63
2023-05-12T16:55:25.707Z,75.11
2023-05-12T16:57:52.366Z,75.64
2023-05-12T17:00:19.362Z,76.20
2023-05-12T17:02:46.057Z,77.19
2023-05-12T17:05:12.857Z,76.74
2023-05-12T17:07:39.495Z,77.59
2023-05-12T17:10:06.689Z,77.05
2023-05-12T17:12:33.352Z,77.06
2023-05-12T17:15:07.399Z,76.68
2023-05-12T17:17:35.023Z,76.58
2023-05-12T17:20:02.465Z,77.55
2023-05-12T17:22:29.611Z,78.93
2023-05-12T17:24:56.681Z,78.52
2023-05-12T17:27:23.524Z,78.94
2023-05-12T17:29:50.204Z,79.40
2023-05-12T17:32:17.090Z,79.22
2023-05-12T17:34:43.798Z,79.37
2023-05-12T17:37:10.540Z,79.55
2023-05-12T17:39:40.439Z,79.44
2023-05-12T17:42:07.562Z,79.67
2023-05-12T17:44:34.200Z,80.70
2023-05-12T17:47:01.288Z,80.07
2023-05-12T17:49:28.046Z,80.17
2023-05-12T17:51:55.022Z,80.30
2023-05-12T17:54:21.674Z,80.05
2023-05-12T17:56:48.744Z,80.43
2023-05-12T17:59:15.357Z,81.30
2023-05-12T18:01:42.245Z,81.30
2023-05-12T18:04:09.160Z,81.42
2023-05-12T18:06:35.964Z,81.61
2023-05-12T18:09:03.281Z,82.72
2023-05-12T18:11:30.018Z,82.64
2023-05-12T18:13:56.657Z,82.36
2023-05-12T18:16:29.023Z,79.76
2023-05-12T18:18:56.933Z,75.72
2023-05-12T18:21:23.714Z,75.95
2023-05-12T18:23:50.378Z,73.53
2023-05-12T18:26:17.056Z,76.69
2023-05-12T18:28:43.751Z,74.76
2023-05-12T18:31:15.474Z,74.17
2023-05-12T18:33:42.558Z,73.14
2023-05-12T18:36:10.169Z,73.26
2023-05-12T18:38:37.098Z,73.36
2023-05-12T18:41:03.790Z,74.50
2023-05-12T18:43:30.510Z,75.25
2023-05-12T18:45:57.288Z,75.51
2023-05-12T18:48:24.014Z,75.92
2023-05-12T18:50:50.943Z,76.25
2023-05-12T18:53:17.840Z,76.79
2023-05-12T18:55:44.578Z,77.78
2023-05-12T18:58:11.279Z,78.60
2023-05-12T19:00:37.993Z,78.43
2023-05-12T19:03:04.754Z,78.40
2023-05-12T19:05:31.603Z,78.24
2023-05-12T19:07:58.427Z,79.33
2023-05-12T19:10:25.168Z,80.83
2023-05-12T19:12:51.912Z,81.32
2023-05-12T19:15:19.021Z,81.74
2023-05-12T19:17:45.912Z,82.65
2023-05-12T19:20:12.608Z,83.24
2023-05-12T19:22:39.392Z,84.04
2023-05-12T19:25:06.507Z,83.74
2023-05-12T19:27:33.229Z,84.51
2023-05-12T19:30:02.242Z,84.95
2023-05-12T19:32:29.158Z,85.33
2023-05-12T19:34:56.073Z,85.88
2023-05-12T19:37:22.944Z,86.41
2023-05-12T19:39:50.344Z,86.63
2023-05-12T19:42:17.201Z,86.79
2023-05-12T19:44:43.868Z,87.28
2023-05-12T19:47:11.368Z,87.06
2023-05-12T19:49:38.521Z,87.00
2023-05-12T19:52:06.030Z,87.70
2023-05-12T19:54:32.755Z,87.61
2023-05-12T19:56:59.433Z,87.45
2023-05-12T19:59:26.744Z,87.20
2023-05-12T20:01:53.793Z,86.57
2023-05-12T20:04:20.496Z,87.24
2023-05-12T20:06:47.158Z,87.11
2023-05-12T20:09:13.908Z,86.47
2023-05-12T20:11:40.465Z,87.27
2023-05-12T20:14:07.149Z,87.91
2023-05-12T20:16:33.865Z,88.10
2023-05-12T20:19:02.646Z,87.89
2023-05-12T20:21:31.379Z,88.72
2023-05-12T20:23:58.165Z,88.53
2023-05-12T20:26:24.842Z,88.25
2023-05-12T20:28:51.507Z,88.19
2023-05-12T20:31:18.816Z,88.89
2023-05-12T20:33:45.621Z,88.38
2023-05-12T20:36:12.282Z,89.30
2023-05-12T20:38:39.809Z,88.95
2023-05-12T20:41:07.449Z,89.00
2023-05-12T20:43:34.215Z,88.53
2023-05-12T20:46:04.708Z,88.51
2023-05-12T20:48:32.494Z,88.15
2023-05-12T20:50:59.667Z,88.66
2023-05-12T20:53:26.404Z,88.59
2023-05-12T20:55:53.000Z,89.04
2023-05-12T20:58:19.715Z,89.11
2023-05-12T21:00:46.340Z,89.18
2023-05-12T21:03:16.855Z,89.18
2023-05-12T21:05:47.706Z,88.97
2023-05-12T21:08:14.600Z,88.46
2023-05-12T21:10:41.441Z,88.97
2023-05-12T21:13:08.147Z,89.18
2023-05-12T21:15:35.108Z,89.30
2023-05-12T21:18:01.860Z,89.08
2023-05-12T21:20:28.497Z,88.92
2023-05-12T21:22:56.851Z,89.41
2023-05-12T21:25:23.858Z,89.45
2023-05-12T21:27:50.550Z,89.21
2023-05-12T21:30:17.339Z,89.29
2023-05-12T21:32:44.383Z,89.78
2023-05-12T21:35:11.430Z,89.52
2023-05-12T21:37:38.313Z,89.35
2023-05-12T21:40:05.965Z,90.03
2023-05-12T21:42:32.708Z,89.67
2023-05-12T21:44:59.396Z,89.72
2023-05-12T21:47:26.076Z,89.72
2023-05-12T21:49:54.572Z,89.84
2023-05-12T21:52:21.361Z,90.13
2023-05-12T21:54:47.956Z,90.73
2023-05-12T21:57:14.822Z,90.22
2023-05-12T21:59:41.368Z,90.40
2023-05-12T22:02:08.113Z,90.43
2023-05-12T22:04:34.944Z,90.40
2023-05-12T22:07:01.650Z,91.03
2023-05-12T22:09:30.396Z,91.10
2023-05-12T22:11:57.979Z,90.66
2023-05-12T22:14:24.834Z,91.07
2023-05-12T22:16:51.657Z,90.99
2023-05-12T22:19:18.431Z,91.14
2023-05-12T22:21:45.728Z,91.63
2023-05-12T22:24:12.423Z,91.27
2023-05-12T22:26:39.240Z,92.29
2023-05-12T22:29:05.884Z,91.94
2023-05-12T22:31:32.606Z,92.13
2023-05-12T22:33:59.346Z,92.51
2023-05-12T22:36:25.981Z,92.75
2023-05-12T22:38:52.649Z,92.99
2023-05-12T22:41:19.366Z,92.64
2023-05-12T22:43:46.191Z,92.95
2023-05-12T22:46:12.950Z,93.32
2023-05-12T22:48:39.880Z,93.27
2023-05-12T22:51:06.909Z,93.44
2023-05-12T22:53:41.188Z,93.30
2023-05-12T22:56:08.302Z,93.07
2023-05-12T22:58:34.893Z,92.71
2023-05-12T23:01:01.778Z,92.86
2023-05-12T23:03:28.509Z,92.54
2023-05-12T23:05:55.668Z,93.02
2023-05-12T23:08:22.405Z,92.89
2023-05-12T23:10:49.098Z,91.82
2023-05-12T23:13:16.000Z,91.92
2023-05-12T23:15:42.743Z,91.74
2023-05-12T23:18:09.609Z,91.62
2023-05-12T23:20:36.355Z,91.20
2023-05-12T23:23:03.055Z,91.66
2023-05-12T23:25:29.730Z,91.36
2023-05-12T23:27:56.278Z,91.93
2023-05-12T23:30:23.332Z,92.17
2023-05-12T23:32:50.699Z,92.67
2023-05-12T23:35:17.567Z,92.88
2023-05-12T23:37:44.756Z,92.39
2023-05-12T23:40:11.686Z,92.32
2023-05-12T23:42:38.253Z,92.58
2023-05-12T23:45:05.510Z,92.28
2023-05-12T23:47:32.152Z,92.20
2023-05-12T23:49:58.828Z,92.14
2023-05-12T23:52:25.938Z,91.35
2023-05-12T23:54:53.050Z,91.83
2023-05-12T23:57:19.758Z,91.88
2023-05-12T23:59:46.459Z,92.12
